Time,TemperatureF,DewpointF,PressureIn,WindDirection,WindDirectionDegrees,WindSpeedMPH,WindSpeedGustMPH,Humidity,HourlyPrecipIn,Conditions,Clouds,dailyrainin,SoftwareType,DateUTC
2013-02-25 00:00:00,50.0,36.0,-100.00,ESE,117,9.0,-999.0,58,0.00,,,0.00,,2013-02-25 06:00:00,
2013-02-25 00:32:00,50.0,36.0,-100.00,ESE,117,9.0,-999.0,58,0.00,,,0.00,,2013-02-25 06:32:00,
2013-02-25 00:42:00,50.0,36.0,-100.00,ESE,117,9.0,-999.0,58,0.00,,,0.00,,2013-02-25 06:42:00,
2013-02-25 00:52:00,50.0,36.0,-100.00,ESE,117,9.0,-999.0,58,0.00,,,0.00,,2013-02-25 06:52:00,
2013-02-25 01:00:00,50.0,36.0,-100.00,ESE,114,11.0,-999.0,58,0.00,,,0.00,,2013-02-25 07:00:00,
2013-02-25 01:32:00,50.0,36.0,-100.00,ESE,114,11.0,-999.0,58,0.00,,,0.00,,2013-02-25 07:32:00,
2013-02-25 01:42:00,50.0,36.0,-100.00,ESE,114,11.0,-999.0,58,0.00,,,0.00,,2013-02-25 07:42:00,
2013-02-25 01:52:00,50.0,36.0,-100.00,ESE,114,11.0,-999.0,58,0.00,,,0.00,,2013-02-25 07:52:00,
2013-02-25 02:00:00,50.0,35.0,-100.00,East,92,8.0,-999.0,57,0.00,,,0.00,,2013-02-25 08:00:00,
2013-02-25 02:32:00,50.0,35.0,-100.00,East,92,8.0,-999.0,57,0.00,,,0.00,,2013-02-25 08:32:00,
2013-02-25 02:42:00,50.0,35.0,-100.00,East,92,8.0,-999.0,57,0.00,,,0.00,,2013-02-25 08:42:00,
2013-02-25 02:52:00,50.0,35.0,-100.00,East,92,8.0,-999.0,57,0.00,,,0.00,,2013-02-25 08:52:00,
2013-02-25 03:00:00,51.0,36.0,-100.00,ENE,63,7.0,-999.0,56,0.00,,,0.00,,2013-02-25 09:00:00,
2013-02-25 03:32:00,51.0,36.0,-100.00,ENE,63,7.0,-999.0,56,0.00,,,0.00,,2013-02-25 09:32:00,
2013-02-25 03:42:00,51.0,36.0,-100.00,ENE,63,7.0,-999.0,56,0.00,,,0.00,,2013-02-25 09:42:00,
2013-02-25 03:52:00,51.0,36.0,-100.00,ENE,63,7.0,-999.0,56,0.00,,,0.00,,2013-02-25 09:52:00,
2013-02-25 04:00:00,52.0,36.0,-100.00,North,10,3.0,-999.0,56,0.00,,,0.00,,2013-02-25 10:00:00,
2013-02-25 04:32:00,52.0,36.0,-100.00,North,10,3.0,-999.0,56,0.00,,,0.00,,2013-02-25 10:32:00,
2013-02-25 04:42:00,52.0,36.0,-100.00,North,10,3.0,-999.0,56,0.00,,,0.00,,2013-02-25 10:42:00,
2013-02-25 04:52:00,52.0,36.0,-100.00,North,10,3.0,-999.0,56,0.00,,,0.00,,2013-02-25 10:52:00,
2013-02-25 05:00:00,50.0,38.0,-100.00,NNE,30,4.0,-999.0,65,0.00,,,0.00,,2013-02-25 11:00:00,
2013-02-25 05:32:00,50.0,38.0,-100.00,NNE,30,4.0,-999.0,65,0.00,,,0.00,,2013-02-25 11:32:00,
2013-02-25 05:42:00,50.0,38.0,-100.00,NNE,30,4.0,-999.0,65,0.00,,,0.00,,2013-02-25 11:42:00,
2013-02-25 05:52:00,50.0,38.0,-100.00,NNE,30,4.0,-999.0,65,0.00,,,0.00,,2013-02-25 11:52:00,
2013-02-25 06:00:00,50.0,40.0,-100.00,SE,128,5.0,-999.0,70,0.01,,,0.01,,2013-02-25 12:00:00,
2013-02-25 06:32:00,50.0,40.0,-100.00,SE,128,5.0,-999.0,70,0.01,,,0.01,,2013-02-25 12:32:00,
2013-02-25 06:42:00,50.0,40.0,-100.00,SE,128,5.0,-999.0,70,0.01,,,0.01,,2013-02-25 12:42:00,
2013-02-25 06:55:00,50.0,40.0,-100.00,SE,128,5.0,-999.0,70,0.01,,,0.01,,2013-02-25 12:55:00,
2013-02-25 07:00:00,51.0,39.0,-100.00,SE,127,12.0,-999.0,64,0.00,,,0.01,,2013-02-25 13:00:00,
2013-02-25 07:32:00,51.0,39.0,-100.00,SE,127,12.0,-999.0,64,0.00,,,0.01,,2013-02-25 13:32:00,
2013-02-25 07:42:00,51.0,39.0,-100.00,SE,127,12.0,-999.0,64,0.00,,,0.01,,2013-02-25 13:42:00,
2013-02-25 07:52:00,51.0,39.0,-100.00,SE,127,12.0,-999.0,64,0.00,,,0.01,,2013-02-25 13:52:00,
2013-02-25 08:00:00,48.0,41.0,-100.00,SE,146,9.0,-999.0,76,0.09,,,0.10,,2013-02-25 14:00:00,
2013-02-25 08:32:00,48.0,41.0,-100.00,SE,146,9.0,-999.0,76,0.09,,,0.10,,2013-02-25 14:32:00,
2013-02-25 08:42:00,48.0,41.0,-100.00,SE,146,9.0,-999.0,76,0.09,,,0.10,,2013-02-25 14:42:00,
2013-02-25 08:52:00,48.0,41.0,-100.00,SE,146,9.0,-999.0,76,0.09,,,0.10,,2013-02-25 14:52:00,
2013-02-25 09:00:00,49.0,42.0,-100.00,SE,128,10.0,-999.0,76,0.02,,,0.12,,2013-02-25 15:00:00,
2013-02-25 09:32:00,49.0,42.0,-100.00,SE,128,10.0,-999.0,76,0.02,,,0.12,,2013-02-25 15:32:00,
2013-02-25 09:42:00,49.0,42.0,-100.00,SE,128,10.0,-999.0,76,0.02,,,0.12,,2013-02-25 15:42:00,
2013-02-25 09:52:00,49.0,42.0,-100.00,SE,128,10.0,-999.0,76,0.02,,,0.12,,2013-02-25 15:52:00,
2013-02-25 10:00:00,49.0,42.0,-100.00,SE,125,14.0,-999.0,77,0.00,,,0.12,,2013-02-25 16:00:00,
2013-02-25 10:32:00,49.0,42.0,-100.00,SE,125,14.0,-999.0,77,0.00,,,0.12,,2013-02-25 16:32:00,
2013-02-25 10:42:00,49.0,42.0,-100.00,SE,125,14.0,-999.0,77,0.00,,,0.12,,2013-02-25 16:42:00,
2013-02-25 10:52:00,49.0,42.0,-100.00,SE,125,14.0,-999.0,77,0.00,,,0.12,,2013-02-25 16:52:00,
2013-02-25 11:00:00,47.0,45.0,-100.00,SSE,159,12.0,-999.0,93,0.37,,,0.49,,2013-02-25 17:00:00,
2013-02-25 11:32:00,47.0,45.0,-100.00,SSE,159,12.0,-999.0,93,0.37,,,0.49,,2013-02-25 17:32:00,
2013-02-25 11:42:00,47.0,45.0,-100.00,SSE,159,12.0,-999.0,93,0.37,,,0.49,,2013-02-25 17:42:00,
2013-02-25 11:52:00,47.0,45.0,-100.00,SSE,159,12.0,-999.0,93,0.37,,,0.49,,2013-02-25 17:52:00,
2013-02-25 12:00:00,46.0,46.0,-100.00,SE,142,4.0,-999.0,98,0.01,,,0.50,,2013-02-25 18:00:00,
2013-02-25 12:32:00,46.0,46.0,-100.00,SE,142,4.0,-999.0,98,0.01,,,0.50,,2013-02-25 18:32:00,
2013-02-25 12:42:00,46.0,46.0,-100.00,SE,142,4.0,-999.0,98,0.01,,,0.50,,2013-02-25 18:42:00,
2013-02-25 12:52:00,46.0,46.0,-100.00,SE,142,4.0,-999.0,98,0.01,,,0.50,,2013-02-25 18:52:00,
2013-02-25 13:00:00,46.0,46.0,-100.00,ESE,109,3.0,-999.0,100,0.04,,,0.54,,2013-02-25 19:00:00,
2013-02-25 13:32:00,46.0,46.0,-100.00,ESE,109,3.0,-999.0,100,0.04,,,0.54,,2013-02-25 19:32:00,
2013-02-25 13:42:00,46.0,46.0,-100.00,ESE,109,3.0,-999.0,100,0.04,,,0.54,,2013-02-25 19:42:00,
2013-02-25 13:52:00,46.0,46.0,-100.00,ESE,109,3.0,-999.0,100,0.04,,,0.54,,2013-02-25 19:52:00,
2013-02-25 14:00:00,47.0,47.0,-100.00,East,100,3.0,-999.0,100,0.01,,,0.55,,2013-02-25 20:00:00,
2013-02-25 14:32:00,47.0,47.0,-100.00,East,100,3.0,-999.0,100,0.01,,,0.55,,2013-02-25 20:32:00,
2013-02-25 14:42:00,47.0,47.0,-100.00,East,100,3.0,-999.0,100,0.01,,,0.55,,2013-02-25 20:42:00,
2013-02-25 14:52:00,47.0,47.0,-100.00,East,100,3.0,-999.0,100,0.01,,,0.55,,2013-02-25 20:52:00,
2013-02-25 15:00:00,47.0,47.0,-100.00,NNE,24,2.0,-999.0,100,0.00,,,0.55,,2013-02-25 21:00:00,
2013-02-25 15:32:00,47.0,47.0,-100.00,NNE,24,2.0,-999.0,100,0.00,,,0.55,,2013-02-25 21:32:00,
2013-02-25 15:42:00,47.0,47.0,-100.00,NNE,24,2.0,-999.0,100,0.00,,,0.55,,2013-02-25 21:42:00,
2013-02-25 15:52:00,47.0,47.0,-100.00,NNE,24,2.0,-999.0,100,0.00,,,0.55,,2013-02-25 21:52:00,
2013-02-25 16:00:00,48.0,48.0,-100.00,SSE,159,4.0,-999.0,100,0.01,,,0.56,,2013-02-25 22:00:00,
2013-02-25 16:32:00,48.0,48.0,-100.00,SSE,159,4.0,-999.0,100,0.01,,,0.56,,2013-02-25 22:32:00,
2013-02-25 16:42:00,48.0,48.0,-100.00,SSE,159,4.0,-999.0,100,0.01,,,0.56,,2013-02-25 22:42:00,
2013-02-25 16:52:00,48.0,48.0,-100.00,SSE,159,4.0,-999.0,100,0.01,,,0.56,,2013-02-25 22:52:00,
2013-02-25 17:00:00,50.0,50.0,-100.00,West,268,6.0,-999.0,100,0.00,,,0.56,,2013-02-25 23:00:00,
2013-02-25 17:32:00,50.0,50.0,-100.00,West,268,6.0,-999.0,100,0.00,,,0.56,,2013-02-25 23:32:00,
2013-02-25 17:42:00,50.0,50.0,-100.00,West,268,6.0,-999.0,100,0.00,,,0.56,,2013-02-25 23:42:00,
2013-02-25 17:52:00,50.0,50.0,-100.00,West,268,6.0,-999.0,100,0.00,,,0.56,,2013-02-25 23:52:00,
2013-02-25 18:00:00,47.0,47.0,-100.00,NNW,332,4.0,-999.0,98,0.00,,,0.56,,2013-02-26 00:00:00,
2013-02-25 18:32:00,47.0,47.0,-100.00,NNW,332,4.0,-999.0,98,0.00,,,0.56,,2013-02-26 00:32:00,
2013-02-25 18:42:00,47.0,47.0,-100.00,NNW,332,4.0,-999.0,98,0.00,,,0.56,,2013-02-26 00:42:00,
2013-02-25 18:52:00,47.0,47.0,-100.00,NNW,332,4.0,-999.0,98,0.00,,,0.56,,2013-02-26 00:52:00,
2013-02-25 19:00:00,46.0,46.0,-100.00,NW,306,2.0,-999.0,100,0.00,,,0.56,,2013-02-26 01:00:00,
2013-02-25 19:32:00,46.0,46.0,-100.00,NW,306,2.0,-999.0,100,0.00,,,0.56,,2013-02-26 01:32:00,
2013-02-25 19:42:00,46.0,46.0,-100.00,NW,306,2.0,-999.0,100,0.00,,,0.56,,2013-02-26 01:42:00,
2013-02-25 19:52:00,46.0,46.0,-100.00,NW,306,2.0,-999.0,100,0.00,,,0.56,,2013-02-26 01:52:00,
2013-02-25 20:00:00,45.0,45.0,-100.00,NW,325,5.0,-999.0,99,0.00,,,0.56,,2013-02-26 02:00:00,
2013-02-25 20:32:00,45.0,45.0,-100.00,NW,325,5.0,-999.0,99,0.00,,,0.56,,2013-02-26 02:32:00,
2013-02-25 20:42:00,45.0,45.0,-100.00,NW,325,5.0,-999.0,99,0.00,,,0.56,,2013-02-26 02:42:00,
2013-02-25 20:52:00,45.0,45.0,-100.00,NW,325,5.0,-999.0,99,0.00,,,0.56,,2013-02-26 02:52:00,
2013-02-25 21:00:00,44.0,44.0,-100.00,West,271,4.0,-999.0,99,0.00,,,0.56,,2013-02-26 03:00:00,
2013-02-25 21:42:00,44.0,44.0,-100.00,West,271,4.0,-999.0,99,0.00,,,0.56,,2013-02-26 03:42:00,
2013-02-25 21:52:00,44.0,44.0,-100.00,West,271,4.0,-999.0,99,0.00,,,0.56,,2013-02-26 03:52:00,
2013-02-25 22:00:00,43.0,43.0,-100.00,WSW,256,4.0,-999.0,99,0.00,,,0.56,,2013-02-26 04:00:00,
2013-02-25 22:32:00,43.0,43.0,-100.00,WSW,256,4.0,-999.0,99,0.00,,,0.56,,2013-02-26 04:32:00,
2013-02-25 22:42:00,43.0,43.0,-100.00,WSW,256,4.0,-999.0,99,0.00,,,0.56,,2013-02-26 04:42:00,
2013-02-25 22:52:00,43.0,43.0,-100.00,WSW,256,4.0,-999.0,99,0.00,,,0.56,,2013-02-26 04:52:00,
2013-02-25 23:00:00,43.0,43.0,-100.00,SW,229,6.0,-999.0,99,0.00,,,0.56,,2013-02-26 05:00:00,
2013-02-25 23:32:00,43.0,43.0,-100.00,SW,229,6.0,-999.0,99,0.00,,,0.56,,2013-02-26 05:32:00,
2013-02-25 23:43:00,43.0,43.0,-100.00,SW,229,6.0,-999.0,99,0.00,,,0.56,,2013-02-26 05:43:00,
2013-02-25 23:52:00,43.0,43.0,-100.00,SW,229,6.0,-999.0,99,0.00,,,0.56,,2013-02-26 05:52:00,